sensor_id;sensor_type;location;lat;lon;timestamp;pressure;altitude;pressure_sealevel;temperature;humidity
69751;BME280;57335;52.288;6.056;2022-08-30T00:01:07;102205.00;;;14.61;89.02
69751;BME280;57335;52.288;6.056;2022-08-30T00:03:45;102199.94;;;14.60;90.49
69751;BME280;57335;52.288;6.056;2022-08-30T00:06:14;102205.59;;;14.56;90.50
69751;BME280;57335;52.288;6.056;2022-08-30T00:08:42;102192.56;;;14.55;92.00
69751;BME280;57335;52.288;6.056;2022-08-30T00:11:12;102200.69;;;14.53;91.33
69751;BME280;57335;52.288;6.056;2022-08-30T00:13:41;102188.50;;;14.46;90.97
69751;BME280;57335;52.288;6.056;2022-08-30T00:16:08;102203.53;;;14.52;92.22
69751;BME280;57335;52.288;6.056;2022-08-30T00:18:35;102190.72;;;14.49;92.77
69751;BME280;57335;52.288;6.056;2022-08-30T00:21:02;102197.84;;;14.48;93.59
69751;BME280;57335;52.288;6.056;2022-08-30T00:23:28;102194.34;;;14.41;92.44
69751;BME280;57335;52.288;6.056;2022-08-30T00:25:55;102203.09;;;14.48;92.09
69751;BME280;57335;52.288;6.056;2022-08-30T00:28:21;102188.28;;;14.41;92.68
69751;BME280;57335;52.288;6.056;2022-08-30T00:30:48;102204.31;;;14.46;91.79
69751;BME280;57335;52.288;6.056;2022-08-30T00:33:15;102189.69;;;14.43;91.15
69751;BME280;57335;52.288;6.056;2022-08-30T00:35:41;102200.47;;;14.42;90.34
69751;BME280;57335;52.288;6.056;2022-08-30T00:38:10;102196.19;;;14.41;90.61
69751;BME280;57335;52.288;6.056;2022-08-30T00:40:38;102193.97;;;14.38;89.89
69751;BME280;57335;52.288;6.056;2022-08-30T00:43:08;102188.25;;;14.34;89.76
69751;BME280;57335;52.288;6.056;2022-08-30T00:45:39;102175.63;;;14.23;89.40
69751;BME280;57335;52.288;6.056;2022-08-30T00:48:06;102176.66;;;14.22;89.01
69751;BME280;57335;52.288;6.056;2022-08-30T00:50:37;102190.47;;;14.24;88.52
69751;BME280;57335;52.288;6.056;2022-08-30T00:53:06;102191.63;;;14.21;88.13
69751;BME280;57335;52.288;6.056;2022-08-30T00:55:35;102181.47;;;14.11;88.28
69751;BME280;57335;52.288;6.056;2022-08-30T00:58:06;102192.03;;;14.11;88.39
69751;BME280;57335;52.288;6.056;2022-08-30T01:00:34;102189.16;;;14.06;88.40
69751;BME280;57335;52.288;6.056;2022-08-30T01:03:00;102190.56;;;14.02;88.42
69751;BME280;57335;52.288;6.056;2022-08-30T01:05:27;102178.97;;;13.96;88.07
69751;BME280;57335;52.288;6.056;2022-08-30T01:07:53;102189.84;;;13.87;88.00
69751;BME280;57335;52.288;6.056;2022-08-30T01:10:20;102202.84;;;13.88;88.48
69751;BME280;57335;52.288;6.056;2022-08-30T01:12:46;102189.03;;;13.80;88.76
69751;BME280;57335;52.288;6.056;2022-08-30T01:15:14;102197.56;;;13.82;89.08
69751;BME280;57335;52.288;6.056;2022-08-30T01:17:43;102199.31;;;13.74;88.76
69751;BME280;57335;52.288;6.056;2022-08-30T01:20:13;102198.88;;;13.71;88.49
69751;BME280;57335;52.288;6.056;2022-08-30T01:25:22;102204.75;;;13.66;87.79
69751;BME280;57335;52.288;6.056;2022-08-30T01:27:56;102219.34;;;13.69;87.40
69751;BME280;57335;52.288;6.056;2022-08-30T01:30:23;102218.09;;;13.65;87.55
69751;BME280;57335;52.288;6.056;2022-08-30T01:32:56;102215.06;;;13.61;87.51
69751;BME280;57335;52.288;6.056;2022-08-30T01:35:24;102219.28;;;13.55;87.22
69751;BME280;57335;52.288;6.056;2022-08-30T01:37:51;102218.66;;;13.53;87.14
69751;BME280;57335;52.288;6.056;2022-08-30T01:40:18;102206.44;;;13.46;87.19
69751;BME280;57335;52.288;6.056;2022-08-30T01:42:44;102227.50;;;13.46;86.47
69751;BME280;57335;52.288;6.056;2022-08-30T01:45:11;102224.44;;;13.42;86.27
69751;BME280;57335;52.288;6.056;2022-08-30T01:47:38;102226.00;;;13.36;87.41
69751;BME280;57335;52.288;6.056;2022-08-30T01:50:06;102221.84;;;13.27;87.21
69751;BME280;57335;52.288;6.056;2022-08-30T01:52:32;102210.00;;;13.16;87.15
69751;BME280;57335;52.288;6.056;2022-08-30T01:54:59;102209.31;;;13.08;86.74
69751;BME280;57335;52.288;6.056;2022-08-30T01:57:25;102214.16;;;13.04;86.99
69751;BME280;57335;52.288;6.056;2022-08-30T01:59:52;102219.53;;;12.96;87.11
69751;BME280;57335;52.288;6.056;2022-08-30T02:02:21;102214.22;;;12.89;88.40
69751;BME280;57335;52.288;6.056;2022-08-30T02:04:48;102210.50;;;12.84;88.88
69751;BME280;57335;52.288;6.056;2022-08-30T02:07:15;102210.00;;;12.73;89.14
69751;BME280;57335;52.288;6.056;2022-08-30T02:09:42;102209.56;;;12.70;89.44
69751;BME280;57335;52.288;6.056;2022-08-30T02:12:11;102215.44;;;12.72;90.23
69751;BME280;57335;52.288;6.056;2022-08-30T02:14:38;102217.19;;;12.65;90.26
69751;BME280;57335;52.288;6.056;2022-08-30T02:17:06;102212.94;;;12.64;89.87
69751;BME280;57335;52.288;6.056;2022-08-30T02:19:33;102221.56;;;12.57;90.69
69751;BME280;57335;52.288;6.056;2022-08-30T02:21:59;102199.19;;;12.47;90.70
69751;BME280;57335;52.288;6.056;2022-08-30T02:24:26;102219.50;;;12.53;90.48
69751;BME280;57335;52.288;6.056;2022-08-30T02:26:53;102211.78;;;12.51;90.84
69751;BME280;57335;52.288;6.056;2022-08-30T02:29:21;102215.63;;;12.49;90.99
69751;BME280;57335;52.288;6.056;2022-08-30T02:31:47;102211.06;;;12.43;91.17
69751;BME280;57335;52.288;6.056;2022-08-30T02:34:14;102216.16;;;12.44;90.16
69751;BME280;57335;52.288;6.056;2022-08-30T02:36:42;102207.00;;;12.40;89.54
69751;BME280;57335;52.288;6.056;2022-08-30T02:39:09;102218.78;;;12.44;89.95
69751;BME280;57335;52.288;6.056;2022-08-30T02:41:37;102203.09;;;12.36;90.89
69751;BME280;57335;52.288;6.056;2022-08-30T02:44:04;102214.31;;;12.45;90.96
69751;BME280;57335;52.288;6.056;2022-08-30T02:46:32;102208.25;;;12.44;92.00
69751;BME280;57335;52.288;6.056;2022-08-30T02:49:00;102198.31;;;12.40;92.25
69751;BME280;57335;52.288;6.056;2022-08-30T02:51:47;102209.50;;;12.48;91.78
69751;BME280;57335;52.288;6.056;2022-08-30T02:54:14;102201.63;;;12.48;92.29
69751;BME280;57335;52.288;6.056;2022-08-30T02:56:40;102196.75;;;12.45;92.44
69751;BME280;57335;52.288;6.056;2022-08-30T02:59:07;102208.16;;;12.52;93.95
69751;BME280;57335;52.288;6.056;2022-08-30T03:01:33;102209.78;;;12.53;94.00
69751;BME280;57335;52.288;6.056;2022-08-30T03:04:00;102191.13;;;12.48;95.26
69751;BME280;57335;52.288;6.056;2022-08-30T03:06:26;102199.09;;;12.55;96.41
69751;BME280;57335;52.288;6.056;2022-08-30T03:08:53;102202.34;;;12.57;97.90
69751;BME280;57335;52.288;6.056;2022-08-30T03:11:19;102200.34;;;12.59;96.30
69751;BME280;57335;52.288;6.056;2022-08-30T03:13:45;102196.53;;;12.62;96.06
69751;BME280;57335;52.288;6.056;2022-08-30T03:16:12;102201.41;;;12.65;95.90
69751;BME280;57335;52.288;6.056;2022-08-30T03:18:38;102198.59;;;12.66;95.84
69751;BME280;57335;52.288;6.056;2022-08-30T03:21:09;102195.78;;;12.68;95.84
69751;BME280;57335;52.288;6.056;2022-08-30T03:23:36;102200.69;;;12.71;95.66
69751;BME280;57335;52.288;6.056;2022-08-30T03:26:02;102202.28;;;12.72;95.97
69751;BME280;57335;52.288;6.056;2022-08-30T03:28:29;102185.44;;;12.66;96.30
69751;BME280;57335;52.288;6.056;2022-08-30T03:30:55;102201.31;;;12.73;96.14
69751;BME280;57335;52.288;6.056;2022-08-30T03:33:21;102196.22;;;12.71;95.76
69751;BME280;57335;52.288;6.056;2022-08-30T03:35:48;102200.28;;;12.74;96.16
69751;BME280;57335;52.288;6.056;2022-08-30T03:38:15;102197.41;;;12.69;95.82
69751;BME280;57335;52.288;6.056;2022-08-30T03:40:41;102197.03;;;12.72;95.56
69751;BME280;57335;52.288;6.056;2022-08-30T03:43:08;102201.31;;;12.73;95.77
69751;BME280;57335;52.288;6.056;2022-08-30T03:45:34;102192.34;;;12.67;95.67
69751;BME280;57335;52.288;6.056;2022-08-30T03:48:01;102209.19;;;12.73;95.37
69751;BME280;57335;52.288;6.056;2022-08-30T03:50:28;102198.59;;;12.66;95.25
69751;BME280;57335;52.288;6.056;2022-08-30T03:52:55;102195.34;;;12.64;95.49
69751;BME280;57335;52.288;6.056;2022-08-30T03:55:22;102213.84;;;12.71;95.77
69751;BME280;57335;52.288;6.056;2022-08-30T03:57:48;102198.78;;;12.65;95.87
69751;BME280;57335;52.288;6.056;2022-08-30T04:00:17;102209.75;;;12.68;95.76
69751;BME280;57335;52.288;6.056;2022-08-30T04:02:43;102207.91;;;12.69;96.54
69751;BME280;57335;52.288;6.056;2022-08-30T04:05:11;102206.31;;;12.68;96.04
69751;BME280;57335;52.288;6.056;2022-08-30T04:07:40;102206.47;;;12.66;95.78
69751;BME280;57335;52.288;6.056;2022-08-30T04:10:08;102218.19;;;12.64;95.08
69751;BME280;57335;52.288;6.056;2022-08-30T04:12:34;102206.88;;;12.63;94.57
69751;BME280;57335;52.288;6.056;2022-08-30T04:15:03;102211.69;;;12.60;94.81
69751;BME280;57335;52.288;6.056;2022-08-30T04:17:30;102204.53;;;12.53;94.57
69751;BME280;57335;52.288;6.056;2022-08-30T04:19:56;102206.78;;;12.56;94.78
69751;BME280;57335;52.288;6.056;2022-08-30T04:22:23;102206.97;;;12.55;95.03
69751;BME280;57335;52.288;6.056;2022-08-30T04:24:49;102215.84;;;12.54;94.13
69751;BME280;57335;52.288;6.056;2022-08-30T04:27:15;102216.88;;;12.53;94.48
69751;BME280;57335;52.288;6.056;2022-08-30T04:29:42;102204.81;;;12.44;93.85
69751;BME280;57335;52.288;6.056;2022-08-30T04:32:08;102210.53;;;12.47;93.91
69751;BME280;57335;52.288;6.056;2022-08-30T04:34:35;102212.31;;;12.47;93.52
69751;BME280;57335;52.288;6.056;2022-08-30T04:37:01;102216.16;;;12.44;93.97
69751;BME280;57335;52.288;6.056;2022-08-30T04:39:29;102221.50;;;12.36;94.93
69751;BME280;57335;52.288;6.056;2022-08-30T04:41:57;102221.97;;;12.40;94.19
69751;BME280;57335;52.288;6.056;2022-08-30T04:44:23;102224.53;;;12.33;94.63
69751;BME280;57335;52.288;6.056;2022-08-30T04:46:49;102224.31;;;12.34;96.63
69751;BME280;57335;52.288;6.056;2022-08-30T04:49:16;102217.53;;;12.25;97.26
69751;BME280;57335;52.288;6.056;2022-08-30T04:51:43;102229.16;;;12.31;97.70
69751;BME280;57335;52.288;6.056;2022-08-30T04:54:09;102223.91;;;12.31;99.12
69751;BME280;57335;52.288;6.056;2022-08-30T04:56:36;102224.88;;;12.30;99.00
69751;BME280;57335;52.288;6.056;2022-08-30T04:59:02;102227.78;;;12.35;99.67
69751;BME280;57335;52.288;6.056;2022-08-30T05:01:30;102232.66;;;12.38;98.10
69751;BME280;57335;52.288;6.056;2022-08-30T05:04:02;102244.44;;;12.42;97.33
69751;BME280;57335;52.288;6.056;2022-08-30T05:06:28;102235.34;;;12.45;97.09
69751;BME280;57335;52.288;6.056;2022-08-30T05:08:55;102237.63;;;12.48;98.30
69751;BME280;57335;52.288;6.056;2022-08-30T05:11:22;102243.97;;;12.53;99.25
69751;BME280;57335;52.288;6.056;2022-08-30T05:13:48;102249.47;;;12.58;98.84
69751;BME280;57335;52.288;6.056;2022-08-30T05:16:14;102230.25;;;12.58;99.94
69751;BME280;57335;52.288;6.056;2022-08-30T05:18:41;102247.19;;;12.70;100.00
69751;BME280;57335;52.288;6.056;2022-08-30T05:21:34;102249.53;;;12.80;100.00
69751;BME280;57335;52.288;6.056;2022-08-30T05:24:00;102243.28;;;12.81;100.00
69751;BME280;57335;52.288;6.056;2022-08-30T05:26:30;102259.47;;;13.00;100.00
69751;BME280;57335;52.288;6.056;2022-08-30T05:28:57;102261.09;;;13.22;99.55
69751;BME280;57335;52.288;6.056;2022-08-30T05:31:26;102263.91;;;13.64;99.38
69751;BME280;57335;52.288;6.056;2022-08-30T05:33:54;102269.31;;;14.19;97.62
69751;BME280;57335;52.288;6.056;2022-08-30T05:36:23;102265.13;;;14.79;93.82
69751;BME280;57335;52.288;6.056;2022-08-30T05:38:51;102249.38;;;15.32;90.39
69751;BME280;57335;52.288;6.056;2022-08-30T05:41:19;102265.00;;;15.94;88.85
69751;BME280;57335;52.288;6.056;2022-08-30T05:43:45;102259.94;;;16.51;86.58
69751;BME280;57335;52.288;6.056;2022-08-30T05:46:13;102267.91;;;17.21;84.40
69751;BME280;57335;52.288;6.056;2022-08-30T05:48:40;102258.47;;;17.75;80.48
69751;BME280;57335;52.288;6.056;2022-08-30T05:51:10;102258.56;;;18.43;79.37
69751;BME280;57335;52.288;6.056;2022-08-30T05:53:38;102259.59;;;19.02;75.83
69751;BME280;57335;52.288;6.056;2022-08-30T05:56:07;102261.19;;;19.57;74.14
69751;BME280;57335;52.288;6.056;2022-08-30T05:58:34;102251.03;;;20.18;72.59
69751;BME280;57335;52.288;6.056;2022-08-30T06:01:00;102267.25;;;20.86;70.14
69751;BME280;57335;52.288;6.056;2022-08-30T06:03:27;102272.59;;;21.37;63.98
69751;BME280;57335;52.288;6.056;2022-08-30T06:05:54;102264.84;;;21.69;62.80
69751;BME280;57335;52.288;6.056;2022-08-30T06:08:20;102259.69;;;22.06;61.90
69751;BME280;57335;52.288;6.056;2022-08-30T06:10:47;102264.00;;;22.52;61.95
69751;BME280;57335;52.288;6.056;2022-08-30T06:13:13;102265.78;;;22.73;58.28
69751;BME280;57335;52.288;6.056;2022-08-30T06:15:40;102275.47;;;23.06;60.15
69751;BME280;57335;52.288;6.056;2022-08-30T06:18:07;102271.66;;;23.35;58.73
69751;BME280;57335;52.288;6.056;2022-08-30T06:20:39;102271.72;;;23.82;55.87
69751;BME280;57335;52.288;6.056;2022-08-30T06:23:05;102276.44;;;24.28;53.90
69751;BME280;57335;52.288;6.056;2022-08-30T06:25:35;102270.94;;;24.81;55.88
69751;BME280;57335;52.288;6.056;2022-08-30T06:28:07;102269.06;;;25.33;54.27
69751;BME280;57335;52.288;6.056;2022-08-30T06:30:34;102283.13;;;25.90;52.15
69751;BME280;57335;52.288;6.056;2022-08-30T06:33:01;102273.03;;;26.31;51.26
69751;BME280;57335;52.288;6.056;2022-08-30T06:35:27;102272.72;;;26.82;50.01
69751;BME280;57335;52.288;6.056;2022-08-30T06:37:58;102271.00;;;27.26;48.61
69751;BME280;57335;52.288;6.056;2022-08-30T06:40:24;102281.47;;;27.81;47.33
69751;BME280;57335;52.288;6.056;2022-08-30T06:42:50;102275.56;;;28.22;45.64
69751;BME280;57335;52.288;6.056;2022-08-30T06:45:17;102281.09;;;28.50;45.00
69751;BME280;57335;52.288;6.056;2022-08-30T06:47:44;102274.03;;;28.54;43.47
69751;BME280;57335;52.288;6.056;2022-08-30T06:50:11;102279.44;;;28.73;41.50
69751;BME280;57335;52.288;6.056;2022-08-30T06:52:43;102281.03;;;28.74;42.58
69751;BME280;57335;52.288;6.056;2022-08-30T06:55:10;102277.78;;;28.91;42.94
69751;BME280;57335;52.288;6.056;2022-08-30T06:57:37;102279.53;;;29.14;40.29
69751;BME280;57335;52.288;6.056;2022-08-30T07:00:07;102286.28;;;28.98;38.89
69751;BME280;57335;52.288;6.056;2022-08-30T07:02:36;102288.97;;;28.98;40.94
69751;BME280;57335;52.288;6.056;2022-08-30T07:05:03;102281.16;;;29.15;40.65
69751;BME280;57335;52.288;6.056;2022-08-30T07:07:30;102289.16;;;29.20;40.64
69751;BME280;57335;52.288;6.056;2022-08-30T07:09:56;102288.59;;;29.37;40.15
69751;BME280;57335;52.288;6.056;2022-08-30T07:12:22;102295.78;;;29.42;39.02
69751;BME280;57335;52.288;6.056;2022-08-30T07:14:49;102294.31;;;29.63;39.29
69751;BME280;57335;52.288;6.056;2022-08-30T07:17:15;102284.81;;;29.80;39.43
69751;BME280;57335;52.288;6.056;2022-08-30T07:19:42;102291.66;;;30.14;38.70
69751;BME280;57335;52.288;6.056;2022-08-30T07:22:08;102295.22;;;30.37;37.14
69751;BME280;57335;52.288;6.056;2022-08-30T07:24:34;102285.22;;;30.60;34.78
69751;BME280;57335;52.288;6.056;2022-08-30T07:27:01;102288.69;;;30.52;36.62
69751;BME280;57335;52.288;6.056;2022-08-30T07:29:27;102290.75;;;30.18;36.41
69751;BME280;57335;52.288;6.056;2022-08-30T07:31:53;102294.84;;;30.30;35.24
69751;BME280;57335;52.288;6.056;2022-08-30T07:34:20;102292.44;;;30.28;35.64
69751;BME280;57335;52.288;6.056;2022-08-30T07:36:49;102278.69;;;29.88;36.77
69751;BME280;57335;52.288;6.056;2022-08-30T07:39:16;102291.72;;;29.86;36.27
69751;BME280;57335;52.288;6.056;2022-08-30T07:41:42;102299.22;;;29.61;36.91
69751;BME280;57335;52.288;6.056;2022-08-30T07:44:09;102287.78;;;29.51;36.13
69751;BME280;57335;52.288;6.056;2022-08-30T07:46:37;102290.19;;;29.38;36.33
69751;BME280;57335;52.288;6.056;2022-08-30T07:49:05;102293.19;;;29.23;36.17
69751;BME280;57335;52.288;6.056;2022-08-30T07:51:37;102285.28;;;29.13;36.46
69751;BME280;57335;52.288;6.056;2022-08-30T07:54:03;102278.41;;;28.69;37.19
69751;BME280;57335;52.288;6.056;2022-08-30T07:56:30;102291.06;;;28.87;38.92
69751;BME280;57335;52.288;6.056;2022-08-30T07:58:56;102293.38;;;29.27;38.59
69751;BME280;57335;52.288;6.056;2022-08-30T08:01:23;102296.22;;;29.49;36.95
69751;BME280;57335;52.288;6.056;2022-08-30T08:03:49;102301.03;;;29.80;35.37
69751;BME280;57335;52.288;6.056;2022-08-30T08:06:18;102287.91;;;29.46;35.91
69751;BME280;57335;52.288;6.056;2022-08-30T08:08:45;102285.59;;;29.67;35.92
69751;BME280;57335;52.288;6.056;2022-08-30T08:11:14;102287.03;;;29.78;36.37
69751;BME280;57335;52.288;6.056;2022-08-30T08:13:43;102292.00;;;29.43;36.12
69751;BME280;57335;52.288;6.056;2022-08-30T08:16:21;102287.09;;;29.73;36.44
69751;BME280;57335;52.288;6.056;2022-08-30T08:18:48;102300.78;;;30.04;33.78
69751;BME280;57335;52.288;6.056;2022-08-30T08:21:14;102294.66;;;30.12;33.92
69751;BME280;57335;52.288;6.056;2022-08-30T08:23:41;102286.56;;;30.12;34.31
69751;BME280;57335;52.288;6.056;2022-08-30T08:26:07;102291.00;;;29.94;31.99
69751;BME280;57335;52.288;6.056;2022-08-30T08:28:33;102292.50;;;29.73;32.35
69751;BME280;57335;52.288;6.056;2022-08-30T08:31:00;102288.69;;;29.32;33.32
69751;BME280;57335;52.288;6.056;2022-08-30T08:33:26;102291.50;;;29.27;33.81
69751;BME280;57335;52.288;6.056;2022-08-30T08:35:53;102291.63;;;29.03;34.86
69751;BME280;57335;52.288;6.056;2022-08-30T08:38:19;102293.19;;;29.23;35.58
69751;BME280;57335;52.288;6.056;2022-08-30T08:40:58;102277.47;;;29.11;34.16
69751;BME280;57335;52.288;6.056;2022-08-30T08:43:32;102289.31;;;29.10;34.69
69751;BME280;57335;52.288;6.056;2022-08-30T08:48:40;102296.38;;;28.92;33.59
69751;BME280;57335;52.288;6.056;2022-08-30T08:51:27;102294.22;;;29.08;34.00
69751;BME280;57335;52.288;6.056;2022-08-30T08:54:00;102296.91;;;29.41;33.95
69751;BME280;57335;52.288;6.056;2022-08-30T08:56:29;102294.72;;;29.43;32.00
69751;BME280;57335;52.288;6.056;2022-08-30T08:58:57;102286.38;;;29.26;32.63
69751;BME280;57335;52.288;6.056;2022-08-30T09:01:27;102283.03;;;28.82;33.22
69751;BME280;57335;52.288;6.056;2022-08-30T09:03:55;102292.91;;;28.35;34.79
69751;BME280;57335;52.288;6.056;2022-08-30T09:06:37;102283.28;;;28.10;34.08
69751;BME280;57335;52.288;6.056;2022-08-30T09:09:11;102293.44;;;28.37;35.02
69751;BME280;57335;52.288;6.056;2022-08-30T09:11:38;102291.91;;;28.69;33.79
69751;BME280;57335;52.288;6.056;2022-08-30T09:14:10;102293.03;;;28.81;33.34
69751;BME280;57335;52.288;6.056;2022-08-30T09:16:58;102285.22;;;28.80;33.05
69751;BME280;57335;52.288;6.056;2022-08-30T09:19:32;102288.97;;;28.46;33.00
69751;BME280;57335;52.288;6.056;2022-08-30T09:22:44;102278.81;;;28.00;34.24
69751;BME280;57335;52.288;6.056;2022-08-30T09:24:58;102290.56;;;28.09;33.48
69751;BME280;57335;52.288;6.056;2022-08-30T09:27:36;102275.59;;;27.98;33.77
69751;BME280;57335;52.288;6.056;2022-08-30T09:30:07;102284.47;;;27.98;33.34
69751;BME280;57335;52.288;6.056;2022-08-30T09:32:42;102269.97;;;27.94;33.59
69751;BME280;57335;52.288;6.056;2022-08-30T09:35:12;102268.69;;;27.68;34.13
69751;BME280;57335;52.288;6.056;2022-08-30T09:37:55;102284.63;;;27.88;33.37
69751;BME280;57335;52.288;6.056;2022-08-30T09:40:40;102272.63;;;27.75;34.61
69751;BME280;57335;52.288;6.056;2022-08-30T09:45:45;102281.00;;;27.74;34.49
69751;BME280;57335;52.288;6.056;2022-08-30T09:48:30;102261.50;;;27.82;33.32
69751;BME280;57335;52.288;6.056;2022-08-30T09:56:44;102277.56;;;27.15;34.43
69751;BME280;57335;52.288;6.056;2022-08-30T10:07:36;102255.91;;;26.17;37.64
69751;BME280;57335;52.288;6.056;2022-08-30T10:10:29;102259.19;;;26.09;37.57
69751;BME280;57335;52.288;6.056;2022-08-30T10:13:13;102267.47;;;26.17;37.99
69751;BME280;57335;52.288;6.056;2022-08-30T10:15:50;102266.53;;;26.42;34.70
69751;BME280;57335;52.288;6.056;2022-08-30T10:18:33;102268.69;;;26.35;36.62
69751;BME280;57335;52.288;6.056;2022-08-30T10:21:15;102256.28;;;26.44;35.90
69751;BME280;57335;52.288;6.056;2022-08-30T10:23:52;102259.78;;;26.40;35.81
69751;BME280;57335;52.288;6.056;2022-08-30T10:26:32;102268.63;;;26.45;35.41
69751;BME280;57335;52.288;6.056;2022-08-30T10:29:08;102267.19;;;26.63;35.10
69751;BME280;57335;52.288;6.056;2022-08-30T10:34:34;102266.06;;;26.75;35.00
69751;BME280;57335;52.288;6.056;2022-08-30T10:37:15;102264.13;;;26.80;33.99
69751;BME280;57335;52.288;6.056;2022-08-30T10:39:49;102267.56;;;26.46;34.31
69751;BME280;57335;52.288;6.056;2022-08-30T10:44:48;102251.66;;;26.05;36.00
69751;BME280;57335;52.288;6.056;2022-08-30T10:47:22;102246.88;;;25.97;36.79
69751;BME280;57335;52.288;6.056;2022-08-30T10:50:05;102251.94;;;26.04;36.51
69751;BME280;57335;52.288;6.056;2022-08-30T10:52:43;102258.34;;;26.18;36.12
69751;BME280;57335;52.288;6.056;2022-08-30T10:55:18;102252.69;;;26.15;35.87
69751;BME280;57335;52.288;6.056;2022-08-30T10:57:45;102245.69;;;26.14;36.40
69751;BME280;57335;52.288;6.056;2022-08-30T11:00:23;102252.31;;;26.32;36.22
69751;BME280;57335;52.288;6.056;2022-08-30T11:08:46;102234.75;;;26.00;36.25
69751;BME280;57335;52.288;6.056;2022-08-30T11:14:09;102241.81;;;26.40;35.65
69751;BME280;57335;52.288;6.056;2022-08-30T11:16:46;102247.59;;;26.58;35.96
69751;BME280;57335;52.288;6.056;2022-08-30T11:19:20;102240.56;;;26.67;35.09
69751;BME280;57335;52.288;6.056;2022-08-30T11:21:51;102253.91;;;26.77;35.62
69751;BME280;57335;52.288;6.056;2022-08-30T11:24:22;102242.28;;;26.87;35.30
69751;BME280;57335;52.288;6.056;2022-08-30T11:26:55;102241.25;;;26.83;35.68
69751;BME280;57335;52.288;6.056;2022-08-30T11:31:54;102249.75;;;26.61;34.76
69751;BME280;57335;52.288;6.056;2022-08-30T11:44:39;102235.09;;;26.77;35.54
69751;BME280;57335;52.288;6.056;2022-08-30T11:47:37;102228.63;;;26.78;36.02
69751;BME280;57335;52.288;6.056;2022-08-30T11:50:11;102214.25;;;26.54;35.49
69751;BME280;57335;52.288;6.056;2022-08-30T11:56:32;102222.69;;;26.81;35.44
69751;BME280;57335;52.288;6.056;2022-08-30T11:59:06;102202.44;;;26.89;33.93
69751;BME280;57335;52.288;6.056;2022-08-30T12:01:37;102223.63;;;26.96;34.81
69751;BME280;57335;52.288;6.056;2022-08-30T12:10:03;102221.34;;;27.61;33.85
69751;BME280;57335;52.288;6.056;2022-08-30T12:12:05;102211.16;;;27.58;34.90
69751;BME280;57335;52.288;6.056;2022-08-30T12:14:50;102212.19;;;27.62;33.31
69751;BME280;57335;52.288;6.056;2022-08-30T12:17:27;102206.84;;;27.57;33.42
69751;BME280;57335;52.288;6.056;2022-08-30T12:19:59;102208.38;;;27.63;33.03
69751;BME280;57335;52.288;6.056;2022-08-30T12:22:25;102201.09;;;27.45;32.98
69751;BME280;57335;52.288;6.056;2022-08-30T12:24:53;102203.53;;;27.41;33.86
69751;BME280;57335;52.288;6.056;2022-08-30T12:27:31;102201.75;;;27.32;31.85
69751;BME280;57335;52.288;6.056;2022-08-30T12:30:01;102218.00;;;27.21;33.08
69751;BME280;57335;52.288;6.056;2022-08-30T12:32:30;102206.72;;;27.19;34.21
69751;BME280;57335;52.288;6.056;2022-08-30T12:34:58;102199.88;;;27.32;34.31
69751;BME280;57335;52.288;6.056;2022-08-30T12:37:28;102210.88;;;27.36;33.13
69751;BME280;57335;52.288;6.056;2022-08-30T12:42:41;102189.44;;;27.25;34.01
69751;BME280;57335;52.288;6.056;2022-08-30T12:45:14;102191.78;;;27.32;34.88
69751;BME280;57335;52.288;6.056;2022-08-30T12:47:50;102192.50;;;27.43;34.40
69751;BME280;57335;52.288;6.056;2022-08-30T12:50:27;102190.50;;;27.00;32.35
69751;BME280;57335;52.288;6.056;2022-08-30T12:53:01;102191.19;;;26.82;33.66
69751;BME280;57335;52.288;6.056;2022-08-30T12:55:32;102186.13;;;26.80;34.38
69751;BME280;57335;52.288;6.056;2022-08-30T12:58:06;102190.31;;;26.92;35.17
69751;BME280;57335;52.288;6.056;2022-08-30T13:03:04;102177.97;;;27.15;34.40
69751;BME280;57335;52.288;6.056;2022-08-30T13:05:44;102182.59;;;27.38;34.82
69751;BME280;57335;52.288;6.056;2022-08-30T13:08:21;102178.38;;;27.51;34.82
69751;BME280;57335;52.288;6.056;2022-08-30T13:13:48;102172.59;;;27.63;32.91
69751;BME280;57335;52.288;6.056;2022-08-30T13:18:45;102176.38;;;27.38;33.78
69751;BME280;57335;52.288;6.056;2022-08-30T13:21:25;102155.94;;;27.37;32.86
69751;BME280;57335;52.288;6.056;2022-08-30T13:24:01;102165.06;;;27.41;33.96
69751;BME280;57335;52.288;6.056;2022-08-30T13:26:36;102162.66;;;27.39;34.04
69751;BME280;57335;52.288;6.056;2022-08-30T13:29:06;102160.69;;;27.45;33.71
69751;BME280;57335;52.288;6.056;2022-08-30T13:31:35;102156.34;;;27.49;33.76
69751;BME280;57335;52.288;6.056;2022-08-30T13:34:02;102153.88;;;27.53;33.08
69751;BME280;57335;52.288;6.056;2022-08-30T13:36:31;102161.84;;;27.39;32.49
69751;BME280;57335;52.288;6.056;2022-08-30T13:39:00;102159.94;;;27.15;33.36
69751;BME280;57335;52.288;6.056;2022-08-30T13:41:27;102143.94;;;27.00;32.56
69751;BME280;57335;52.288;6.056;2022-08-30T13:43:59;102145.53;;;26.77;33.70
69751;BME280;57335;52.288;6.056;2022-08-30T13:46:44;102149.00;;;26.48;34.83
69751;BME280;57335;52.288;6.056;2022-08-30T13:49:23;102145.97;;;26.55;34.43
69751;BME280;57335;52.288;6.056;2022-08-30T13:52:13;102138.44;;;26.57;34.47
69751;BME280;57335;52.288;6.056;2022-08-30T13:54:49;102134.88;;;26.66;33.88
69751;BME280;57335;52.288;6.056;2022-08-30T13:57:16;102136.09;;;26.79;34.22
69751;BME280;57335;52.288;6.056;2022-08-30T14:00:09;102150.81;;;26.87;32.90
69751;BME280;57335;52.288;6.056;2022-08-30T14:02:37;102139.16;;;26.97;34.02
69751;BME280;57335;52.288;6.056;2022-08-30T14:05:13;102148.66;;;27.13;34.00
69751;BME280;57335;52.288;6.056;2022-08-30T14:08:00;102138.59;;;27.24;33.09
69751;BME280;57335;52.288;6.056;2022-08-30T14:10:28;102139.84;;;27.32;32.80
69751;BME280;57335;52.288;6.056;2022-08-30T14:12:56;102136.72;;;27.24;32.50